Time;durP1;ratioP1;P1;durP2;ratioP2;P2;SDS_P1;SDS_P2;PMS_P1;PMS_P2;Temp;Humidity;BMP_temperature;BMP_pressure;BME280_temperature;BME280_humidity;BME280_pressure;Samples;Min_cycle;Max_cycle;Signal;HPM_P1;HPM_P2
2021/03/07 05:54:28;;;;;;;15.07;8.50;;;;;;;;;;5085498;28;20878;-79
2021/03/07 05:56:54;;;;;;;14.00;7.05;;;;;;;;;;5073286;28;20039;-79
2021/03/07 06:01:38;;;;;;;14.57;7.28;;;;;;;;;;5067836;28;20785;-80
2021/03/07 06:04:04;;;;;;;15.38;8.07;;;;;;;;;;5067803;28;20032;-80
2021/03/07 06:06:33;;;;;;;21.05;7.90;;;;;;;;;;5065444;28;20504;-79
2021/03/07 06:09:17;;;;;;;12.73;7.65;;;;;;;;;;5073288;28;20016;-80
2021/03/07 06:11:43;;;;;;;14.27;6.15;;;;;;;;;;5076093;28;20391;-80
2021/03/07 06:14:19;;;;;;;12.25;6.68;;;;;;;;;;5061230;28;20029;-78
2021/03/07 06:16:57;;;;;;;12.80;7.15;;;;;;;;;;5065277;28;20024;-80
2021/03/07 06:19:23;;;;;;;12.30;6.95;;;;;;;;;;5067435;28;20029;-80
2021/03/07 06:21:49;;;;;;;14.32;7.32;;;;;;;;;;5075422;28;20072;-79
2021/03/07 06:24:32;;;;;;;13.57;6.50;;;;;;;;;;5072798;28;20043;-79
2021/03/07 06:27:27;;;;;;;15.07;6.32;;;;;;;;;;5070948;28;20031;-80
2021/03/07 06:29:56;;;;;;;13.20;6.82;;;;;;;;;;5068452;28;20036;-80
2021/03/07 06:32:22;;;;;;;14.57;7.68;;;;;;;;;;5078713;28;20468;-80
2021/03/07 06:34:48;;;;;;;16.75;6.53;;;;;;;;;;5069925;28;20013;-79
2021/03/07 06:37:14;;;;;;;13.63;7.20;;;;;;;;;;5071448;28;20017;-80
2021/03/07 06:39:40;;;;;;;15.15;6.35;;;;;;;;;;5072976;28;20021;-79
2021/03/07 06:42:06;;;;;;;13.18;6.00;;;;;;;;;;5071217;28;20031;-80
2021/03/07 06:44:33;;;;;;;10.20;6.53;;;;;;;;;;5078379;28;20063;-80
2021/03/07 06:47:12;;;;;;;17.50;7.88;;;;;;;;;;5066385;28;20055;-80
2021/03/07 06:49:38;;;;;;;17.67;7.07;;;;;;;;;;5079731;28;20024;-79
2021/03/07 06:52:12;;;;;;;13.52;6.80;;;;;;;;;;5072712;28;20018;-80
2021/03/07 06:54:38;;;;;;;13.75;6.53;;;;;;;;;;5081378;28;20392;-80
2021/03/07 06:57:03;;;;;;;13.27;6.65;;;;;;;;;;5071396;28;20020;-79
2021/03/07 06:59:29;;;;;;;15.82;7.28;;;;;;;;;;5071402;28;20368;-79
2021/03/07 07:01:56;;;;;;;14.68;7.68;;;;;;;;;;5073393;28;20024;-80
2021/03/07 07:04:23;;;;;;;19.83;9.38;;;;;;;;;;5074998;28;20021;-80
2021/03/07 07:07:01;;;;;;;15.38;9.27;;;;;;;;;;5074208;28;20465;-79
2021/03/07 07:09:26;;;;;;;18.52;9.40;;;;;;;;;;5067518;28;20013;-80
2021/03/07 07:11:54;;;;;;;19.52;9.88;;;;;;;;;;5073375;28;20143;-80
2021/03/07 07:14:49;;;;;;;23.58;11.30;;;;;;;;;;5056309;28;20020;-79
2021/03/07 07:17:16;;;;;;;18.88;10.52;;;;;;;;;;5043155;28;20035;-80
2021/03/07 07:19:43;;;;;;;15.77;8.43;;;;;;;;;;5058692;28;20016;-80
2021/03/07 07:22:11;;;;;;;12.00;6.70;;;;;;;;;;5060501;28;20031;-80
2021/03/07 07:24:37;;;;;;;14.07;7.45;;;;;;;;;;5056305;28;20031;-80
2021/03/07 07:27:03;;;;;;;15.25;6.93;;;;;;;;;;5059565;28;20051;-80
2021/03/07 07:29:28;;;;;;;12.23;6.70;;;;;;;;;;5060694;28;20377;-80
2021/03/07 07:32:16;;;;;;;10.07;5.85;;;;;;;;;;5056892;28;20087;-80
2021/03/07 07:34:47;;;;;;;13.73;5.93;;;;;;;;;;5056847;28;20028;-80
2021/03/07 07:37:22;;;;;;;11.70;6.18;;;;;;;;;;5057006;28;20013;-80
2021/03/07 07:39:50;;;;;;;10.65;6.35;;;;;;;;;;5058741;28;20087;-80
2021/03/07 07:42:19;;;;;;;28.83;15.00;;;;;;;;;;5052112;28;20497;-80
2021/03/07 07:44:45;;;;;;;25.45;13.77;;;;;;;;;;5066160;28;20023;-80
2021/03/07 07:47:11;;;;;;;34.65;18.92;;;;;;;;;;5056326;28;20020;-80
2021/03/07 07:49:38;;;;;;;37.25;17.65;;;;;;;;;;5068869;28;20025;-80
2021/03/07 07:52:22;;;;;;;17.20;9.27;;;;;;;;;;5054466;28;20024;-81
2021/03/07 07:54:55;;;;;;;13.82;8.77;;;;;;;;;;5054136;28;20419;-81
2021/03/07 07:57:37;;;;;;;14.45;8.07;;;;;;;;;;5051095;28;20024;-80
2021/03/07 08:00:05;;;;;;;16.02;8.70;;;;;;;;;;5063101;28;20078;-80
2021/03/07 08:02:46;;;;;;;16.75;8.13;;;;;;;;;;5065247;28;20052;-81
2021/03/07 08:05:21;;;;;;;17.13;8.60;;;;;;;;;;5061818;28;20067;-81
2021/03/07 08:08:05;;;;;;;15.18;7.90;;;;;;;;;;5052418;28;20063;-81
2021/03/07 08:10:40;;;;;;;11.10;6.68;;;;;;;;;;5064910;28;20027;-80
2021/03/07 08:13:06;;;;;;;11.07;6.30;;;;;;;;;;5052159;28;20032;-80
2021/03/07 08:15:33;;;;;;;18.88;9.43;;;;;;;;;;5063232;28;20029;-81
2021/03/07 08:18:03;;;;;;;14.65;7.70;;;;;;;;;;5064984;28;20025;-80
2021/03/07 08:20:38;;;;;;;13.75;7.38;;;;;;;;;;5063209;28;20032;-80
2021/03/07 08:23:14;;;;;;;13.77;8.05;;;;;;;;;;5063360;28;20017;-79
2021/03/07 08:25:48;;;;;;;12.20;6.40;;;;;;;;;;5053907;28;20020;-80
2021/03/07 08:28:27;;;;;;;12.40;6.50;;;;;;;;;;5056821;28;20032;-81
2021/03/07 08:30:57;;;;;;;9.43;5.00;;;;;;;;;;5049002;28;20028;-81
2021/03/07 08:33:23;;;;;;;10.98;7.05;;;;;;;;;;5049993;28;20052;-81
2021/03/07 08:36:07;;;;;;;20.80;10.02;;;;;;;;;;5050057;28;20082;-81
2021/03/07 08:38:33;;;;;;;32.28;13.10;;;;;;;;;;5055520;28;20040;-80
2021/03/07 08:40:59;;;;;;;16.15;7.93;;;;;;;;;;5065520;28;20025;-80
2021/03/07 08:43:25;;;;;;;8.52;5.07;;;;;;;;;;5060836;28;20059;-81
2021/03/07 08:46:03;;;;;;;8.85;5.50;;;;;;;;;;5056986;28;20461;-81
2021/03/07 08:48:29;;;;;;;10.55;5.45;;;;;;;;;;5050638;28;20027;-81
2021/03/07 08:50:55;;;;;;;12.13;5.68;;;;;;;;;;5046672;28;20391;-82
2021/03/07 08:53:26;;;;;;;8.60;5.13;;;;;;;;;;5046526;28;20022;-81
2021/03/07 08:55:52;;;;;;;7.55;4.40;;;;;;;;;;5052208;28;20033;-81
2021/03/07 08:58:18;;;;;;;10.85;5.75;;;;;;;;;;5051874;28;20045;-81
2021/03/07 09:00:45;;;;;;;11.50;5.07;;;;;;;;;;5052295;28;20020;-82
2021/03/07 09:03:17;;;;;;;7.95;4.78;;;;;;;;;;5052320;28;20079;-79
2021/03/07 09:05:43;;;;;;;64.05;20.80;;;;;;;;;;5043338;28;20020;-81
2021/03/07 09:08:09;;;;;;;17.27;7.05;;;;;;;;;;5044370;28;20037;-80
2021/03/07 09:10:42;;;;;;;12.27;5.78;;;;;;;;;;5043222;28;20063;-80
2021/03/07 09:13:13;;;;;;;11.25;5.35;;;;;;;;;;5038913;28;20052;-82
2021/03/07 09:15:40;;;;;;;8.57;5.20;;;;;;;;;;5039348;28;20083;-81
2021/03/07 09:18:06;;;;;;;9.10;5.00;;;;;;;;;;5039856;28;20017;-82
2021/03/07 09:20:41;;;;;;;8.68;5.45;;;;;;;;;;5039278;28;20353;-82
2021/03/07 09:23:21;;;;;;;8.85;5.38;;;;;;;;;;5039935;28;20052;-80
2021/03/07 09:28:05;;;;;;;43.05;14.65;;;;;;;;;;5104374;27;20414;-80
2021/03/07 09:30:30;;;;;;;27.83;10.68;;;;;;;;;;5108591;28;20426;-82
2021/03/07 09:32:56;;;;;;;12.63;5.97;;;;;;;;;;5110602;28;20024;-81
2021/03/07 09:35:26;;;;;;;12.00;7.22;;;;;;;;;;5111294;28;20091;-82
2021/03/07 09:40:11;;;;;;;10.30;4.90;;;;;;;;;;5071550;28;20769;-80
2021/03/07 09:42:38;;;;;;;8.32;5.47;;;;;;;;;;5076673;28;20392;-81
2021/03/07 09:45:05;;;;;;;11.35;6.20;;;;;;;;;;5076433;28;20025;-81
2021/03/07 09:47:31;;;;;;;10.05;5.60;;;;;;;;;;5064510;28;20053;-81
2021/03/07 09:49:56;;;;;;;11.48;5.72;;;;;;;;;;5054410;28;20021;-80
2021/03/07 09:52:22;;;;;;;10.20;4.93;;;;;;;;;;5058188;28;20033;-80
2021/03/07 09:54:52;;;;;;;11.07;5.78;;;;;;;;;;5069810;28;20029;-81
2021/03/07 09:57:19;;;;;;;9.75;5.15;;;;;;;;;;5062454;28;20489;-81
2021/03/07 09:59:48;;;;;;;9.43;5.38;;;;;;;;;;5063422;28;20085;-81
2021/03/07 10:02:14;;;;;;;9.32;6.03;;;;;;;;;;5059812;28;20025;-81
2021/03/07 10:04:42;;;;;;;11.40;5.90;;;;;;;;;;5071105;28;20159;-81
2021/03/07 10:07:11;;;;;;;8.50;5.72;;;;;;;;;;5072156;28;20103;-82
2021/03/07 10:09:55;;;;;;;9.50;6.18;;;;;;;;;;5082166;28;20025;-81
2021/03/07 10:12:21;;;;;;;8.05;5.13;;;;;;;;;;5078798;28;20028;-81
2021/03/07 10:14:53;;;;;;;7.65;4.95;;;;;;;;;;5079164;28;20107;-80
2021/03/07 10:17:19;;;;;;;8.52;5.68;;;;;;;;;;5076514;28;20461;-81
2021/03/07 10:19:45;;;;;;;8.43;5.07;;;;;;;;;;5081087;28;20490;-80
2021/03/07 10:22:12;;;;;;;9.25;5.43;;;;;;;;;;5078368;28;20054;-80
2021/03/07 10:24:38;;;;;;;9.93;5.72;;;;;;;;;;5081369;28;20472;-81
2021/03/07 10:27:10;;;;;;;8.75;4.90;;;;;;;;;;5078863;28;20104;-81
2021/03/07 10:29:37;;;;;;;7.78;5.15;;;;;;;;;;5075631;28;20024;-82
2021/03/07 10:32:17;;;;;;;9.07;5.82;;;;;;;;;;5078505;28;20024;-82
2021/03/07 10:34:44;;;;;;;8.18;5.28;;;;;;;;;;5076720;28;20081;-83
2021/03/07 10:37:10;;;;;;;14.60;8.93;;;;;;;;;;5074745;28;20068;-83
2021/03/07 10:39:36;;;;;;;16.25;9.88;;;;;;;;;;5075174;28;20021;-83
2021/03/07 10:42:06;;;;;;;11.63;6.93;;;;;;;;;;5073484;28;20055;-83
2021/03/07 10:44:32;;;;;;;10.45;6.13;;;;;;;;;;5078473;28;20427;-83
2021/03/07 10:47:12;;;;;;;9.68;5.50;;;;;;;;;;5050370;28;20013;-83
2021/03/07 10:49:37;;;;;;;9.35;5.53;;;;;;;;;;5063977;28;20052;-83
2021/03/07 10:52:03;;;;;;;8.80;5.75;;;;;;;;;;5045990;28;20044;-83
2021/03/07 10:54:29;;;;;;;8.52;5.55;;;;;;;;;;5053185;28;20044;-83
2021/03/07 10:56:54;;;;;;;8.93;5.90;;;;;;;;;;5055767;28;20108;-83
2021/03/07 10:59:20;;;;;;;8.98;5.47;;;;;;;;;;5052309;28;20029;-84
2021/03/07 11:01:46;;;;;;;8.57;4.93;;;;;;;;;;5046699;28;20033;-79
2021/03/07 11:04:11;;;;;;;10.25;4.90;;;;;;;;;;5046052;28;20021;-83
2021/03/07 11:06:37;;;;;;;8.55;5.65;;;;;;;;;;5045943;28;20029;-83
2021/03/07 11:09:03;;;;;;;9.23;5.47;;;;;;;;;;5044843;28;20107;-83
2021/03/07 11:11:29;;;;;;;8.88;5.82;;;;;;;;;;5045906;28;20481;-82
2021/03/07 11:13:54;;;;;;;8.68;5.15;;;;;;;;;;5040235;28;20112;-78
2021/03/07 11:16:20;;;;;;;7.57;5.07;;;;;;;;;;5046305;28;20108;-83
2021/03/07 11:18:46;;;;;;;8.15;5.10;;;;;;;;;;5045406;28;20641;-85
2021/03/07 11:21:12;;;;;;;9.48;5.45;;;;;;;;;;5047119;28;20032;-83
2021/03/07 11:23:37;;;;;;;7.05;4.63;;;;;;;;;;5048267;28;20025;-83
2021/03/07 11:26:06;;;;;;;7.95;5.28;;;;;;;;;;5046851;28;20124;-83
2021/03/07 11:28:32;;;;;;;7.25;4.90;;;;;;;;;;5050906;28;20018;-83
2021/03/07 11:30:58;;;;;;;8.77;5.22;;;;;;;;;;5044365;28;20437;-83
2021/03/07 11:33:24;;;;;;;7.20;4.70;;;;;;;;;;5043885;28;20037;-83
2021/03/07 11:35:50;;;;;;;6.07;4.35;;;;;;;;;;5044181;28;20063;-83
2021/03/07 11:38:16;;;;;;;6.20;4.60;;;;;;;;;;5041774;28;20064;-83
2021/03/07 11:40:42;;;;;;;7.88;4.82;;;;;;;;;;5045178;28;20088;-83
2021/03/07 11:43:07;;;;;;;6.88;4.60;;;;;;;;;;5048334;28;20049;-84
2021/03/07 11:45:33;;;;;;;7.28;4.68;;;;;;;;;;5049720;28;20009;-82
2021/03/07 11:47:59;;;;;;;7.15;5.03;;;;;;;;;;5049444;28;20017;-84
2021/03/07 11:50:25;;;;;;;7.10;4.28;;;;;;;;;;5046031;28;20032;-85
2021/03/07 11:52:51;;;;;;;7.50;5.18;;;;;;;;;;5051304;28;20020;-83
2021/03/07 11:55:16;;;;;;;9.88;5.55;;;;;;;;;;5047441;28;20112;-84
2021/03/07 11:57:42;;;;;;;8.68;5.22;;;;;;;;;;5051261;28;20112;-84
2021/03/07 12:00:08;;;;;;;7.65;5.30;;;;;;;;;;5049064;28;20023;-83
2021/03/07 12:02:34;;;;;;;7.25;5.03;;;;;;;;;;5053818;28;20363;-83
2021/03/07 12:05:00;;;;;;;7.00;4.72;;;;;;;;;;5059421;28;20032;-83
2021/03/07 12:07:25;;;;;;;9.13;5.53;;;;;;;;;;5052617;28;20018;-83
2021/03/07 12:09:51;;;;;;;8.02;5.57;;;;;;;;;;5045659;28;20024;-83
2021/03/07 12:12:17;;;;;;;7.78;4.80;;;;;;;;;;5047734;28;20025;-83
2021/03/07 12:14:43;;;;;;;7.45;5.60;;;;;;;;;;5044546;28;20051;-83
2021/03/07 12:17:09;;;;;;;8.40;4.95;;;;;;;;;;5046047;28;20501;-83
2021/03/07 12:19:35;;;;;;;8.13;5.43;;;;;;;;;;5048452;28;20051;-83
2021/03/07 12:22:01;;;;;;;8.43;5.90;;;;;;;;;;5044277;28;20442;-83
2021/03/07 12:24:29;;;;;;;9.15;5.57;;;;;;;;;;5047790;28;20024;-83
2021/03/07 12:26:54;;;;;;;8.35;5.60;;;;;;;;;;5048781;28;20056;-83
2021/03/07 12:29:20;;;;;;;6.72;5.07;;;;;;;;;;5047895;28;20079;-83
2021/03/07 12:31:46;;;;;;;8.02;5.95;;;;;;;;;;5042422;28;20029;-83
2021/03/07 12:34:11;;;;;;;8.32;5.53;;;;;;;;;;5047315;28;20021;-83
2021/03/07 12:36:37;;;;;;;9.07;5.53;;;;;;;;;;5050380;28;20112;-83
2021/03/07 12:39:03;;;;;;;8.77;5.53;;;;;;;;;;5043241;28;20031;-83
2021/03/07 12:41:28;;;;;;;8.07;5.85;;;;;;;;;;5043350;28;20104;-81
2021/03/07 12:43:54;;;;;;;10.07;5.85;;;;;;;;;;5045900;28;20033;-82
2021/03/07 12:46:20;;;;;;;8.00;5.38;;;;;;;;;;5049745;28;20105;-82
2021/03/07 12:48:45;;;;;;;9.55;5.60;;;;;;;;;;5052907;28;20021;-82
2021/03/07 12:51:11;;;;;;;9.00;5.40;;;;;;;;;;5057152;28;20411;-82
2021/03/07 12:53:38;;;;;;;8.55;6.10;;;;;;;;;;5054139;28;20099;-82
2021/03/07 12:56:03;;;;;;;8.98;6.05;;;;;;;;;;5053652;28;20677;-82
2021/03/07 12:58:29;;;;;;;9.80;6.28;;;;;;;;;;5055369;28;20112;-82
2021/03/07 13:00:55;;;;;;;9.98;6.18;;;;;;;;;;5054598;28;20025;-82
2021/03/07 13:03:20;;;;;;;10.40;6.70;;;;;;;;;;5044735;28;20428;-82
2021/03/07 13:05:46;;;;;;;10.70;7.45;;;;;;;;;;5043352;28;20024;-82
2021/03/07 13:08:12;;;;;;;9.27;6.40;;;;;;;;;;5042223;28;20096;-82
2021/03/07 13:10:37;;;;;;;8.23;5.78;;;;;;;;;;5044226;28;20105;-82
2021/03/07 13:13:03;;;;;;;11.18;5.72;;;;;;;;;;5045106;28;20361;-82
2021/03/07 13:15:29;;;;;;;12.02;5.80;;;;;;;;;;5041264;28;20016;-82
2021/03/07 13:17:54;;;;;;;11.10;6.15;;;;;;;;;;5045341;28;20025;-82
2021/03/07 13:20:22;;;;;;;9.05;6.07;;;;;;;;;;5045136;28;20052;-82
2021/03/07 13:22:48;;;;;;;8.98;5.63;;;;;;;;;;5053332;28;20108;-82
2021/03/07 13:25:14;;;;;;;9.32;5.90;;;;;;;;;;5052505;28;20120;-83
2021/03/07 13:27:39;;;;;;;10.98;6.47;;;;;;;;;;5044993;28;20035;-84
2021/03/07 13:30:06;;;;;;;8.95;6.25;;;;;;;;;;5044406;28;20112;-83
2021/03/07 13:32:31;;;;;;;9.68;6.07;;;;;;;;;;5051390;28;20029;-83
2021/03/07 13:34:57;;;;;;;8.02;5.72;;;;;;;;;;5046395;28;20035;-83
2021/03/07 13:37:23;;;;;;;10.73;6.20;;;;;;;;;;5043557;28;20383;-83
2021/03/07 13:39:49;;;;;;;10.25;6.55;;;;;;;;;;5045228;28;20031;-83
2021/03/07 13:42:14;;;;;;;9.73;5.78;;;;;;;;;;5044021;28;20039;-83
2021/03/07 13:44:40;;;;;;;11.57;6.22;;;;;;;;;;5058209;28;20451;-81
2021/03/07 13:47:05;;;;;;;9.40;5.30;;;;;;;;;;5046577;28;20440;-80
2021/03/07 13:49:31;;;;;;;8.82;6.15;;;;;;;;;;5048213;28;20413;-80
2021/03/07 13:51:57;;;;;;;9.23;6.00;;;;;;;;;;5039133;28;20080;-80
2021/03/07 13:54:22;;;;;;;10.88;6.72;;;;;;;;;;5034739;28;20025;-80
2021/03/07 13:56:48;;;;;;;10.00;6.25;;;;;;;;;;5040502;28;20116;-80
2021/03/07 13:59:14;;;;;;;11.13;6.07;;;;;;;;;;5045222;28;20025;-80
2021/03/07 14:01:40;;;;;;;10.57;5.32;;;;;;;;;;5042624;28;20028;-80
2021/03/07 14:04:05;;;;;;;10.95;6.15;;;;;;;;;;5040627;28;20029;-79
2021/03/07 14:06:31;;;;;;;11.38;6.88;;;;;;;;;;5043960;28;20029;-80
2021/03/07 14:08:57;;;;;;;14.68;10.52;;;;;;;;;;5040281;28;20025;-80
2021/03/07 14:11:22;;;;;;;12.57;8.50;;;;;;;;;;5039002;28;20017;-80
2021/03/07 14:13:48;;;;;;;9.65;6.78;;;;;;;;;;5043890;28;20031;-80
2021/03/07 14:16:14;;;;;;;10.02;6.43;;;;;;;;;;5038702;28;21548;-78
2021/03/07 14:18:39;;;;;;;11.60;6.85;;;;;;;;;;5052854;28;20029;-80
2021/03/07 14:21:06;;;;;;;10.35;7.22;;;;;;;;;;5051036;28;20081;-80
2021/03/07 14:23:31;;;;;;;8.82;5.63;;;;;;;;;;5046533;28;20471;-84
2021/03/07 14:25:57;;;;;;;9.40;6.25;;;;;;;;;;5049306;28;20016;-84
2021/03/07 14:28:23;;;;;;;11.43;6.20;;;;;;;;;;5050965;28;20024;-84
2021/03/07 14:30:49;;;;;;;24.67;13.05;;;;;;;;;;5062104;28;20100;-84
2021/03/07 14:33:14;;;;;;;14.93;7.68;;;;;;;;;;5066966;28;20029;-84
2021/03/07 14:35:40;;;;;;;8.93;5.82;;;;;;;;;;5056278;28;20120;-84
2021/03/07 14:40:25;;;;;;;10.43;5.00;;;;;;;;;;5118782;27;20359;-80
2021/03/07 14:42:51;;;;;;;10.88;6.00;;;;;;;;;;5108358;28;20531;-80
2021/03/07 14:45:17;;;;;;;14.60;8.10;;;;;;;;;;5107342;28;20027;-78
2021/03/07 14:47:43;;;;;;;11.80;6.28;;;;;;;;;;5107254;28;20020;-80
2021/03/07 14:50:11;;;;;;;11.73;5.70;;;;;;;;;;5112752;28;20027;-78
2021/03/07 14:52:38;;;;;;;8.00;5.28;;;;;;;;;;5119729;28;20035;-78
2021/03/07 14:55:05;;;;;;;9.85;6.05;;;;;;;;;;5121970;28;20015;-77
2021/03/07 14:57:31;;;;;;;25.70;14.02;;;;;;;;;;5109361;28;20016;-79
2021/03/07 14:59:57;;;;;;;10.57;6.20;;;;;;;;;;5106843;28;20054;-80
2021/03/07 15:02:22;;;;;;;9.13;5.68;;;;;;;;;;5104761;28;20051;-80
2021/03/07 15:04:48;;;;;;;8.85;5.93;;;;;;;;;;5106775;28;20015;-80
2021/03/07 15:07:14;;;;;;;9.95;5.63;;;;;;;;;;5106022;28;20019;-80
2021/03/07 15:09:39;;;;;;;9.57;5.43;;;;;;;;;;5103539;28;20122;-79
2021/03/07 15:12:05;;;;;;;8.13;5.10;;;;;;;;;;5105335;28;20035;-80
2021/03/07 15:14:31;;;;;;;10.98;5.90;;;;;;;;;;5104801;28;20022;-80
2021/03/07 15:16:56;;;;;;;9.82;6.55;;;;;;;;;;5106605;28;20103;-80
2021/03/07 15:19:22;;;;;;;12.77;7.13;;;;;;;;;;5105274;28;20051;-80
2021/03/07 15:21:48;;;;;;;10.02;6.70;;;;;;;;;;5105602;28;20094;-80
2021/03/07 15:24:14;;;;;;;9.38;6.18;;;;;;;;;;5106311;28;20094;-80
2021/03/07 15:26:40;;;;;;;8.23;5.72;;;;;;;;;;5103524;28;20058;-79
2021/03/07 15:29:05;;;;;;;11.13;7.05;;;;;;;;;;5105562;28;20043;-80
2021/03/07 15:31:31;;;;;;;9.27;6.32;;;;;;;;;;5103409;28;20107;-80
2021/03/07 15:33:56;;;;;;;9.73;6.38;;;;;;;;;;5105469;28;20023;-80
2021/03/07 15:36:22;;;;;;;7.57;5.65;;;;;;;;;;5106608;28;20019;-79
2021/03/07 15:38:48;;;;;;;9.50;6.15;;;;;;;;;;5110657;28;20030;-80
2021/03/07 15:41:13;;;;;;;9.18;5.80;;;;;;;;;;5105475;28;20030;-80
2021/03/07 15:43:39;;;;;;;8.10;5.68;;;;;;;;;;5100957;28;20998;-80
2021/03/07 15:46:05;;;;;;;10.43;5.93;;;;;;;;;;5103735;28;20027;-80
2021/03/07 15:48:31;;;;;;;8.20;5.25;;;;;;;;;;5103627;28;20456;-79
2021/03/07 15:53:15;;;;;;;10.55;6.40;;;;;;;;;;5117081;27;20408;-79
2021/03/07 15:55:40;;;;;;;9.07;6.20;;;;;;;;;;5123368;28;20106;-79
2021/03/07 15:58:06;;;;;;;8.45;5.63;;;;;;;;;;5122456;28;20023;-81
2021/03/07 16:00:32;;;;;;;11.38;7.00;;;;;;;;;;5117474;27;20476;-80
2021/03/07 16:02:57;;;;;;;10.45;6.28;;;;;;;;;;5125411;28;20011;-80
2021/03/07 16:05:23;;;;;;;9.55;5.90;;;;;;;;;;5119460;28;20024;-80
2021/03/07 16:07:49;;;;;;;9.75;6.38;;;;;;;;;;5123889;27;20110;-79
2021/03/07 16:10:15;;;;;;;8.73;5.88;;;;;;;;;;5121033;28;20068;-78
2021/03/07 16:12:41;;;;;;;9.60;6.38;;;;;;;;;;5117219;28;20371;-79
2021/03/07 16:15:09;;;;;;;11.38;7.32;;;;;;;;;;5112862;28;20020;-80
2021/03/07 16:17:34;;;;;;;8.68;5.57;;;;;;;;;;5120461;28;20079;-79
2021/03/07 16:20:00;;;;;;;10.15;6.07;;;;;;;;;;5126151;28;20051;-80
2021/03/07 16:22:26;;;;;;;8.20;6.05;;;;;;;;;;5121248;28;20020;-79
2021/03/07 16:24:52;;;;;;;10.07;6.57;;;;;;;;;;5123284;27;20023;-80
2021/03/07 16:29:36;;;;;;;8.35;5.30;;;;;;;;;;5119333;27;20888;-80
2021/03/07 16:34:20;;;;;;;22.67;12.10;;;;;;;;;;5080396;28;20383;-79
2021/03/07 16:36:46;;;;;;;15.75;9.20;;;;;;;;;;5074574;28;20021;-80
2021/03/07 16:39:12;;;;;;;13.05;7.82;;;;;;;;;;5070470;28;20024;-80
2021/03/07 16:41:38;;;;;;;11.70;7.45;;;;;;;;;;5071821;28;20096;-80
2021/03/07 16:44:04;;;;;;;11.30;6.85;;;;;;;;;;5067893;28;20032;-82
2021/03/07 16:46:30;;;;;;;13.20;7.47;;;;;;;;;;5078466;28;20475;-81
2021/03/07 16:48:56;;;;;;;14.43;8.40;;;;;;;;;;5075744;28;20032;-81
2021/03/07 16:51:21;;;;;;;16.98;10.98;;;;;;;;;;5081144;28;20115;-82
2021/03/07 16:53:47;;;;;;;13.43;9.43;;;;;;;;;;5078052;28;20026;-82
2021/03/07 16:56:13;;;;;;;13.38;6.95;;;;;;;;;;5082816;28;20120;-81
2021/03/07 16:58:38;;;;;;;24.35;14.38;;;;;;;;;;5085055;28;20025;-81
2021/03/07 17:01:04;;;;;;;39.60;23.02;;;;;;;;;;5066077;28;20028;-82
2021/03/07 17:03:30;;;;;;;46.28;26.15;;;;;;;;;;5085475;28;20028;-82
2021/03/07 17:05:55;;;;;;;22.73;14.23;;;;;;;;;;5076889;28;20338;-83
2021/03/07 17:08:21;;;;;;;11.45;7.57;;;;;;;;;;5072310;28;20019;-84
2021/03/07 17:10:47;;;;;;;24.50;15.65;;;;;;;;;;5075848;28;20124;-84
2021/03/07 17:13:12;;;;;;;22.45;14.73;;;;;;;;;;5061019;28;20112;-83
2021/03/07 17:15:38;;;;;;;18.98;11.75;;;;;;;;;;5072762;28;20028;-84
2021/03/07 17:18:04;;;;;;;17.17;10.38;;;;;;;;;;5051815;28;20108;-84
2021/03/07 17:20:29;;;;;;;13.32;8.57;;;;;;;;;;5078727;28;20066;-83
2021/03/07 17:22:55;;;;;;;9.38;6.10;;;;;;;;;;5058189;28;20024;-83
2021/03/07 17:25:20;;;;;;;8.65;5.88;;;;;;;;;;5065307;28;20124;-82
2021/03/07 17:27:46;;;;;;;8.35;5.05;;;;;;;;;;5067363;28;20020;-82
2021/03/07 17:30:12;;;;;;;12.13;5.47;;;;;;;;;;5054882;28;20029;-84
2021/03/07 17:32:38;;;;;;;13.32;8.50;;;;;;;;;;5080873;28;20047;-82
2021/03/07 17:35:04;;;;;;;10.15;7.45;;;;;;;;;;5073281;28;20031;-82
2021/03/07 17:37:29;;;;;;;12.63;7.43;;;;;;;;;;5065711;28;20025;-82
2021/03/07 17:42:14;;;;;;;9.38;5.40;;;;;;;;;;5109688;27;20396;-83
2021/03/07 17:44:40;;;;;;;18.00;11.63;;;;;;;;;;5099376;28;20483;-83
2021/03/07 17:47:06;;;;;;;26.02;20.52;;;;;;;;;;5069564;28;20111;-83
2021/03/07 17:49:33;;;;;;;13.88;9.15;;;;;;;;;;5061285;28;20024;-83
2021/03/07 17:52:25;;;;;;;11.40;7.15;;;;;;;;;;5060883;28;20495;-83
2021/03/07 17:55:18;;;;;;;12.98;9.60;;;;;;;;;;5075520;28;20121;-83
2021/03/07 17:58:11;;;;;;;12.30;9.60;;;;;;;;;;5051286;28;20105;-83
2021/03/07 18:00:36;;;;;;;11.30;7.78;;;;;;;;;;5077862;28;20571;-83
2021/03/07 18:03:02;;;;;;;9.75;6.78;;;;;;;;;;5099898;22;20110;-78
2021/03/07 18:05:28;;;;;;;11.10;6.65;;;;;;;;;;5065315;28;20032;-79
2021/03/07 18:07:53;;;;;;;10.90;7.57;;;;;;;;;;5065235;28;20016;-78
2021/03/07 18:10:19;;;;;;;10.13;6.82;;;;;;;;;;5071864;28;20447;-78
2021/03/07 18:12:45;;;;;;;10.10;5.82;;;;;;;;;;5074025;28;20060;-79
2021/03/07 18:15:11;;;;;;;11.02;5.85;;;;;;;;;;5087303;28;20039;-78
2021/03/07 18:17:37;;;;;;;13.35;6.20;;;;;;;;;;5088111;28;20028;-78
2021/03/07 18:20:04;;;;;;;11.75;5.97;;;;;;;;;;5088980;28;20031;-79
2021/03/07 18:22:29;;;;;;;8.60;5.72;;;;;;;;;;5073205;28;20054;-78
2021/03/07 18:24:55;;;;;;;8.80;4.90;;;;;;;;;;5088768;28;20024;-79
2021/03/07 18:27:21;;;;;;;10.35;5.60;;;;;;;;;;5084980;28;20107;-79
2021/03/07 18:29:46;;;;;;;7.82;4.90;;;;;;;;;;5086379;28;20024;-77
2021/03/07 18:32:12;;;;;;;9.48;5.70;;;;;;;;;;5092006;28;20036;-79
2021/03/07 18:34:38;;;;;;;7.35;4.70;;;;;;;;;;5087931;28;20433;-78
2021/03/07 18:37:03;;;;;;;10.57;5.13;;;;;;;;;;5086673;28;20063;-77
2021/03/07 18:39:29;;;;;;;11.63;5.93;;;;;;;;;;5086624;28;20032;-78
2021/03/07 18:41:55;;;;;;;10.43;5.43;;;;;;;;;;5085965;28;20407;-77
2021/03/07 18:44:23;;;;;;;8.90;5.35;;;;;;;;;;5082214;28;20042;-78
2021/03/07 18:46:48;;;;;;;9.73;5.85;;;;;;;;;;5086461;28;20012;-78
2021/03/07 18:49:16;;;;;;;8.38;5.18;;;;;;;;;;5068474;28;20777;-78
2021/03/07 18:51:42;;;;;;;9.88;5.65;;;;;;;;;;5081529;28;20035;-77
2021/03/07 18:54:07;;;;;;;8.77;5.68;;;;;;;;;;5069312;28;20032;-78
2021/03/07 18:56:33;;;;;;;12.40;6.60;;;;;;;;;;5069069;28;20551;-77
2021/03/07 18:58:59;;;;;;;11.52;6.50;;;;;;;;;;5066479;28;20031;-77
2021/03/07 19:01:26;;;;;;;13.05;7.28;;;;;;;;;;5054784;28;19920;-77
2021/03/07 19:03:52;;;;;;;15.20;7.13;;;;;;;;;;5068157;28;20853;-78
2021/03/07 19:06:18;;;;;;;15.40;8.23;;;;;;;;;;5067873;28;20028;-78
2021/03/07 19:08:44;;;;;;;12.27;8.02;;;;;;;;;;5069229;28;20118;-77
2021/03/07 19:11:09;;;;;;;12.40;7.70;;;;;;;;;;5069935;28;20032;-79
2021/03/07 19:13:35;;;;;;;12.60;7.80;;;;;;;;;;5061676;28;20091;-78
2021/03/07 19:16:01;;;;;;;11.57;6.63;;;;;;;;;;5064224;28;20119;-78
2021/03/07 19:18:26;;;;;;;11.23;6.50;;;;;;;;;;5050486;28;20029;-78
2021/03/07 19:20:52;;;;;;;10.40;7.05;;;;;;;;;;5068338;28;20033;-77
2021/03/07 19:23:18;;;;;;;10.38;6.75;;;;;;;;;;5063569;28;20115;-80
2021/03/07 19:25:45;;;;;;;11.07;6.80;;;;;;;;;;5065156;28;20044;-78
2021/03/07 19:28:11;;;;;;;13.80;7.57;;;;;;;;;;5062751;28;20058;-78
2021/03/07 19:30:37;;;;;;;13.93;6.93;;;;;;;;;;5062210;28;20025;-79
2021/03/07 19:33:03;;;;;;;12.10;6.60;;;;;;;;;;5062662;28;20044;-77
2021/03/07 19:35:28;;;;;;;12.15;7.70;;;;;;;;;;5063165;28;20068;-78
2021/03/07 19:37:54;;;;;;;13.70;6.57;;;;;;;;;;5061764;28;20020;-77
2021/03/07 19:40:20;;;;;;;11.88;6.57;;;;;;;;;;5061165;28;20377;-78
2021/03/07 19:42:46;;;;;;;11.55;6.80;;;;;;;;;;5057651;28;20032;-78
2021/03/07 19:45:12;;;;;;;13.60;7.40;;;;;;;;;;5061483;28;20029;-77
2021/03/07 19:47:38;;;;;;;13.38;8.02;;;;;;;;;;5064500;28;20496;-78
2021/03/07 19:50:04;;;;;;;11.80;7.80;;;;;;;;;;5064938;28;20028;-77
2021/03/07 19:52:30;;;;;;;12.93;8.00;;;;;;;;;;5061513;28;20056;-78
2021/03/07 19:54:56;;;;;;;12.95;7.40;;;;;;;;;;5062338;28;20032;-78
2021/03/07 19:57:21;;;;;;;10.60;6.93;;;;;;;;;;5065852;28;20024;-78
2021/03/07 19:59:47;;;;;;;12.77;7.25;;;;;;;;;;5061644;28;20309;-77
2021/03/07 20:02:13;;;;;;;12.57;8.00;;;;;;;;;;5044436;28;20535;-77
2021/03/07 20:04:39;;;;;;;15.13;8.38;;;;;;;;;;5063984;28;20800;-77
2021/03/07 20:07:04;;;;;;;10.90;6.88;;;;;;;;;;5059772;28;20166;-78
2021/03/07 20:09:30;;;;;;;12.43;7.78;;;;;;;;;;5063185;28;20112;-78
2021/03/07 20:11:56;;;;;;;10.90;6.85;;;;;;;;;;5062795;28;20086;-78
2021/03/07 20:14:22;;;;;;;14.35;8.77;;;;;;;;;;5063358;28;20029;-78
2021/03/07 20:16:47;;;;;;;14.10;7.80;;;;;;;;;;5062525;28;20030;-78
2021/03/07 20:21:32;;;;;;;13.50;7.32;;;;;;;;;;5049924;28;20373;-77
2021/03/07 20:23:57;;;;;;;15.32;7.82;;;;;;;;;;5049297;28;20029;-78
2021/03/07 20:26:23;;;;;;;14.70;8.88;;;;;;;;;;5051209;28;20036;-78
2021/03/07 20:28:49;;;;;;;11.10;6.45;;;;;;;;;;5052329;28;20083;-78
2021/03/07 20:31:15;;;;;;;14.13;7.22;;;;;;;;;;5054294;28;20056;-78
2021/03/07 20:33:40;;;;;;;14.65;8.35;;;;;;;;;;5057857;28;20391;-78
2021/03/07 20:36:06;;;;;;;13.23;7.85;;;;;;;;;;5051393;28;20037;-78
2021/03/07 20:38:32;;;;;;;12.00;7.03;;;;;;;;;;5048791;28;20027;-78
2021/03/07 20:40:58;;;;;;;14.35;8.55;;;;;;;;;;5055489;28;20028;-77
2021/03/07 20:43:23;;;;;;;13.50;8.23;;;;;;;;;;5052888;28;20033;-78
2021/03/07 20:45:49;;;;;;;14.30;7.30;;;;;;;;;;5057974;28;20025;-78
2021/03/07 20:48:15;;;;;;;13.23;8.02;;;;;;;;;;5051032;28;20612;-78